Ana Sayfa
METAR-TAF:

METAR-TAF

Havaalanları :

Cape Romanzof, Alaska, Amerika Birleşik Devletleri

Enlem: 61-47N, Boylam: 166-02W, yükseklik: 139 m

Güncel hava durumu gözlemi

Rapor saat 04:55 UTC de 52 dakika önce yapıldı.
Sakin rüzgar
Sıcaklık -8°C
Nem 100%
Basınç 1020 hPa
Görüş mesafesi: 4.8 km
300 ft yükseklikte az bulutlu
Pus

METAR: PACZ 010455Z AUTO 00000KT 3SM BR FEW003 M08/M08 A3012 RMK AO2 SLP212 T10801082

Saat: 21:47 (05:47 UTC)


TAF: eksik

4.000'den fazla havaalanı için hava durumu gözlemleri ve tahminleri (METAR ve TAF raporları).

Kullanılabilir istasyonlar harita üzerinde sarı ve kırmızı noktalarla gösterilir.

İstasyonun adını görmek için fareyi noktanın üzerinde gezdirin.

Sonrasında hava gözlem ve tahminlerini görmek için tıklayın.

Haritayı değiştirmek için: yaklaştırmak için siyah artı işaretli yeşil düğmeye ve uzaklaştırmak için de eksi işaretli düğmeye hızla tıklayın; bitişik haritalar için yeşil okları kullanın.


METAR-TAF: